sensor_id;sensor_type;location;lat;lon;timestamp;pressure;altitude;pressure_sealevel;temperature;humidity
7660;BME280;3872;47.902;8.162;2023-05-02T00:01:45;91998.31;;;13.72;100.00
7660;BME280;3872;47.902;8.162;2023-05-02T00:04:11;91997.06;;;13.61;100.00
7660;BME280;3872;47.902;8.162;2023-05-02T00:06:38;92003.06;;;13.45;100.00
7660;BME280;3872;47.902;8.162;2023-05-02T00:09:06;91999.75;;;13.22;100.00
7660;BME280;3872;47.902;8.162;2023-05-02T00:11:33;91999.16;;;13.33;100.00
7660;BME280;3872;47.902;8.162;2023-05-02T00:14:01;91998.88;;;13.44;100.00
7660;BME280;3872;47.902;8.162;2023-05-02T00:16:27;91997.78;;;13.45;100.00
7660;BME280;3872;47.902;8.162;2023-05-02T00:18:54;91996.28;;;13.69;100.00
7660;BME280;3872;47.902;8.162;2023-05-02T00:21:20;91986.13;;;13.46;100.00
7660;BME280;3872;47.902;8.162;2023-05-02T00:23:47;91997.50;;;13.46;100.00
7660;BME280;3872;47.902;8.162;2023-05-02T00:26:13;92000.09;;;13.38;100.00
7660;BME280;3872;47.902;8.162;2023-05-02T00:28:41;92000.41;;;13.27;100.00
7660;BME280;3872;47.902;8.162;2023-05-02T00:31:09;92002.16;;;13.41;100.00
7660;BME280;3872;47.902;8.162;2023-05-02T00:33:35;91999.47;;;13.32;100.00
7660;BME280;3872;47.902;8.162;2023-05-02T00:36:02;92007.88;;;13.34;100.00
7660;BME280;3872;47.902;8.162;2023-05-02T00:38:29;92000.56;;;13.31;100.00
7660;BME280;3872;47.902;8.162;2023-05-02T00:40:55;92002.94;;;13.58;100.00
7660;BME280;3872;47.902;8.162;2023-05-02T00:43:22;92000.31;;;13.67;100.00
7660;BME280;3872;47.902;8.162;2023-05-02T00:45:49;92002.81;;;13.72;100.00
7660;BME280;3872;47.902;8.162;2023-05-02T00:48:17;92000.00;;;13.60;100.00
7660;BME280;3872;47.902;8.162;2023-05-02T00:50:45;91998.47;;;13.76;100.00
7660;BME280;3872;47.902;8.162;2023-05-02T00:53:12;92000.94;;;13.72;100.00
7660;BME280;3872;47.902;8.162;2023-05-02T00:55:38;91997.00;;;13.44;100.00
7660;BME280;3872;47.902;8.162;2023-05-02T00:58:08;92002.59;;;13.34;100.00
7660;BME280;3872;47.902;8.162;2023-05-02T01:00:45;91998.34;;;12.85;100.00
7660;BME280;3872;47.902;8.162;2023-05-02T01:03:28;92000.69;;;12.95;100.00
7660;BME280;3872;47.902;8.162;2023-05-02T01:06:03;91997.16;;;13.00;100.00
7660;BME280;3872;47.902;8.162;2023-05-02T01:08:36;92002.25;;;12.65;100.00
7660;BME280;3872;47.902;8.162;2023-05-02T01:11:13;92000.25;;;13.02;100.00
7660;BME280;3872;47.902;8.162;2023-05-02T01:13:42;92000.84;;;12.37;100.00
7660;BME280;3872;47.902;8.162;2023-05-02T01:16:11;92005.53;;;12.62;100.00
7660;BME280;3872;47.902;8.162;2023-05-02T01:18:41;92006.81;;;13.04;100.00
7660;BME280;3872;47.902;8.162;2023-05-02T01:21:10;92009.44;;;12.73;100.00
7660;BME280;3872;47.902;8.162;2023-05-02T01:23:51;92001.59;;;13.13;100.00
7660;BME280;3872;47.902;8.162;2023-05-02T01:26:26;92002.53;;;13.17;100.00
7660;BME280;3872;47.902;8.162;2023-05-02T01:28:58;92006.66;;;13.09;100.00
7660;BME280;3872;47.902;8.162;2023-05-02T01:31:32;92000.72;;;13.43;100.00
7660;BME280;3872;47.902;8.162;2023-05-02T01:33:59;91999.09;;;12.77;100.00
7660;BME280;3872;47.902;8.162;2023-05-02T01:36:30;92002.06;;;12.84;100.00
7660;BME280;3872;47.902;8.162;2023-05-02T01:38:59;92003.00;;;12.88;100.00
7660;BME280;3872;47.902;8.162;2023-05-02T01:41:30;92001.78;;;12.94;100.00
7660;BME280;3872;47.902;8.162;2023-05-02T01:44:01;92002.16;;;13.10;100.00
7660;BME280;3872;47.902;8.162;2023-05-02T01:46:30;92004.28;;;13.30;100.00
7660;BME280;3872;47.902;8.162;2023-05-02T01:49:01;92008.47;;;13.31;100.00
7660;BME280;3872;47.902;8.162;2023-05-02T01:51:29;92013.47;;;12.40;100.00
7660;BME280;3872;47.902;8.162;2023-05-02T01:53:58;92015.72;;;12.55;100.00
7660;BME280;3872;47.902;8.162;2023-05-02T01:56:27;92013.88;;;11.75;100.00
7660;BME280;3872;47.902;8.162;2023-05-02T01:59:00;92011.28;;;11.97;100.00
7660;BME280;3872;47.902;8.162;2023-05-02T02:01:28;92014.09;;;12.23;100.00
7660;BME280;3872;47.902;8.162;2023-05-02T02:03:56;92017.34;;;11.98;100.00
7660;BME280;3872;47.902;8.162;2023-05-02T02:06:24;92015.84;;;13.12;100.00
7660;BME280;3872;47.902;8.162;2023-05-02T02:08:52;92010.50;;;12.94;100.00
7660;BME280;3872;47.902;8.162;2023-05-02T02:11:23;92019.13;;;11.89;100.00
7660;BME280;3872;47.902;8.162;2023-05-02T02:13:57;92026.69;;;11.54;100.00
7660;BME280;3872;47.902;8.162;2023-05-02T02:16:32;92030.34;;;12.61;100.00
7660;BME280;3872;47.902;8.162;2023-05-02T02:19:04;92020.63;;;12.70;100.00
7660;BME280;3872;47.902;8.162;2023-05-02T02:21:33;92019.19;;;12.95;100.00
7660;BME280;3872;47.902;8.162;2023-05-02T02:24:01;92022.59;;;11.48;100.00
7660;BME280;3872;47.902;8.162;2023-05-02T02:26:28;92015.41;;;10.99;100.00
7660;BME280;3872;47.902;8.162;2023-05-02T02:28:55;92016.72;;;12.01;100.00
7660;BME280;3872;47.902;8.162;2023-05-02T02:31:22;92025.63;;;11.42;100.00
7660;BME280;3872;47.902;8.162;2023-05-02T02:33:51;92027.22;;;11.92;100.00
7660;BME280;3872;47.902;8.162;2023-05-02T02:36:23;92026.50;;;12.67;100.00
7660;BME280;3872;47.902;8.162;2023-05-02T02:38:54;92020.59;;;12.17;100.00
7660;BME280;3872;47.902;8.162;2023-05-02T02:41:27;92023.97;;;11.95;100.00
7660;BME280;3872;47.902;8.162;2023-05-02T02:44:00;92024.97;;;11.36;100.00
7660;BME280;3872;47.902;8.162;2023-05-02T02:46:40;92015.19;;;11.23;100.00
7660;BME280;3872;47.902;8.162;2023-05-02T02:49:20;92017.34;;;11.98;100.00
7660;BME280;3872;47.902;8.162;2023-05-02T02:51:53;92023.94;;;11.59;100.00
7660;BME280;3872;47.902;8.162;2023-05-02T02:54:29;92026.13;;;11.44;100.00
7660;BME280;3872;47.902;8.162;2023-05-02T02:57:00;92019.72;;;12.08;100.00
7660;BME280;3872;47.902;8.162;2023-05-02T02:59:31;92034.06;;;11.93;100.00
7660;BME280;3872;47.902;8.162;2023-05-02T03:02:03;92026.22;;;12.69;100.00
7660;BME280;3872;47.902;8.162;2023-05-02T03:04:34;92031.50;;;12.69;100.00
7660;BME280;3872;47.902;8.162;2023-05-02T03:07:02;92034.81;;;11.94;100.00
7660;BME280;3872;47.902;8.162;2023-05-02T03:09:39;92032.53;;;11.37;100.00
7660;BME280;3872;47.902;8.162;2023-05-02T03:12:07;92035.94;;;11.65;100.00
7660;BME280;3872;47.902;8.162;2023-05-02T03:14:37;92039.09;;;12.03;100.00
7660;BME280;3872;47.902;8.162;2023-05-02T03:17:04;92041.88;;;12.21;100.00
7660;BME280;3872;47.902;8.162;2023-05-02T03:19:34;92044.09;;;11.14;100.00
7660;BME280;3872;47.902;8.162;2023-05-02T03:22:01;92053.91;;;11.63;100.00
7660;BME280;3872;47.902;8.162;2023-05-02T03:24:28;92046.81;;;11.36;100.00
7660;BME280;3872;47.902;8.162;2023-05-02T03:26:56;92052.56;;;12.38;100.00
7660;BME280;3872;47.902;8.162;2023-05-02T03:29:27;92047.53;;;12.28;100.00
7660;BME280;3872;47.902;8.162;2023-05-02T03:31:53;92048.06;;;12.61;100.00
7660;BME280;3872;47.902;8.162;2023-05-02T03:34:21;92048.84;;;12.61;100.00
7660;BME280;3872;47.902;8.162;2023-05-02T03:36:52;92053.47;;;12.33;100.00
7660;BME280;3872;47.902;8.162;2023-05-02T03:39:19;92049.03;;;12.42;100.00
7660;BME280;3872;47.902;8.162;2023-05-02T03:41:46;92052.91;;;12.67;100.00
7660;BME280;3872;47.902;8.162;2023-05-02T03:44:17;92065.22;;;11.91;100.00
7660;BME280;3872;47.902;8.162;2023-05-02T03:46:43;92065.44;;;11.26;100.00
7660;BME280;3872;47.902;8.162;2023-05-02T03:49:11;92068.84;;;11.68;100.00
7660;BME280;3872;47.902;8.162;2023-05-02T03:51:40;92070.59;;;11.59;100.00
7660;BME280;3872;47.902;8.162;2023-05-02T03:54:09;92074.00;;;11.73;100.00
7660;BME280;3872;47.902;8.162;2023-05-02T03:56:39;92076.84;;;11.90;100.00
7660;BME280;3872;47.902;8.162;2023-05-02T03:59:16;92074.31;;;11.58;100.00
7660;BME280;3872;47.902;8.162;2023-05-02T04:01:43;92077.94;;;10.75;100.00
7660;BME280;3872;47.902;8.162;2023-05-02T04:04:12;92083.31;;;11.29;100.00
7660;BME280;3872;47.902;8.162;2023-05-02T04:06:45;92086.25;;;10.82;100.00
7660;BME280;3872;47.902;8.162;2023-05-02T04:09:13;92093.53;;;11.45;100.00
7660;BME280;3872;47.902;8.162;2023-05-02T04:11:53;92092.47;;;11.87;100.00
7660;BME280;3872;47.902;8.162;2023-05-02T04:14:21;92102.72;;;11.61;100.00
7660;BME280;3872;47.902;8.162;2023-05-02T04:16:51;92111.38;;;12.02;100.00
7660;BME280;3872;47.902;8.162;2023-05-02T04:19:25;92097.06;;;12.53;100.00
7660;BME280;3872;47.902;8.162;2023-05-02T04:21:51;92107.09;;;12.65;100.00
7660;BME280;3872;47.902;8.162;2023-05-02T04:24:19;92108.78;;;12.83;100.00
7660;BME280;3872;47.902;8.162;2023-05-02T04:26:46;92112.78;;;12.80;100.00
7660;BME280;3872;47.902;8.162;2023-05-02T04:29:13;92120.28;;;12.42;100.00
7660;BME280;3872;47.902;8.162;2023-05-02T04:31:41;92124.97;;;12.90;100.00
7660;BME280;3872;47.902;8.162;2023-05-02T04:34:08;92133.91;;;12.58;100.00
7660;BME280;3872;47.902;8.162;2023-05-02T04:36:40;92128.94;;;12.79;100.00
7660;BME280;3872;47.902;8.162;2023-05-02T04:39:10;92127.31;;;11.70;100.00
7660;BME280;3872;47.902;8.162;2023-05-02T04:41:42;92136.06;;;12.34;100.00
7660;BME280;3872;47.902;8.162;2023-05-02T04:44:11;92131.88;;;12.55;100.00
7660;BME280;3872;47.902;8.162;2023-05-02T04:46:37;92137.78;;;12.38;100.00
7660;BME280;3872;47.902;8.162;2023-05-02T04:49:04;92141.66;;;12.19;100.00
7660;BME280;3872;47.902;8.162;2023-05-02T04:51:31;92137.03;;;12.24;100.00
7660;BME280;3872;47.902;8.162;2023-05-02T04:53:58;92138.66;;;11.70;100.00
7660;BME280;3872;47.902;8.162;2023-05-02T04:56:25;92150.31;;;12.69;100.00
7660;BME280;3872;47.902;8.162;2023-05-02T04:58:54;92150.44;;;11.46;100.00
7660;BME280;3872;47.902;8.162;2023-05-02T05:01:21;92155.06;;;11.81;100.00
7660;BME280;3872;47.902;8.162;2023-05-02T05:03:48;92151.75;;;11.75;100.00
7660;BME280;3872;47.902;8.162;2023-05-02T05:06:16;92150.97;;;11.75;100.00
7660;BME280;3872;47.902;8.162;2023-05-02T05:08:44;92148.00;;;11.35;100.00
7660;BME280;3872;47.902;8.162;2023-05-02T05:11:11;92151.94;;;11.06;100.00
7660;BME280;3872;47.902;8.162;2023-05-02T05:13:39;92149.03;;;10.75;100.00
7660;BME280;3872;47.902;8.162;2023-05-02T05:16:08;92155.16;;;11.62;100.00
7660;BME280;3872;47.902;8.162;2023-05-02T05:18:36;92158.94;;;11.43;100.00
7660;BME280;3872;47.902;8.162;2023-05-02T05:21:07;92157.31;;;11.74;100.00
7660;BME280;3872;47.902;8.162;2023-05-02T05:23:34;92166.50;;;11.76;100.00
7660;BME280;3872;47.902;8.162;2023-05-02T05:26:08;92173.69;;;11.44;100.00
7660;BME280;3872;47.902;8.162;2023-05-02T05:28:34;92163.16;;;11.57;100.00
7660;BME280;3872;47.902;8.162;2023-05-02T05:31:04;92179.22;;;11.28;100.00
7660;BME280;3872;47.902;8.162;2023-05-02T05:33:32;92174.09;;;11.05;100.00
7660;BME280;3872;47.902;8.162;2023-05-02T05:36:03;92173.47;;;12.36;100.00
7660;BME280;3872;47.902;8.162;2023-05-02T05:38:30;92178.34;;;11.47;100.00
7660;BME280;3872;47.902;8.162;2023-05-02T05:40:56;92179.41;;;12.55;100.00
7660;BME280;3872;47.902;8.162;2023-05-02T05:43:24;92176.47;;;12.57;100.00
7660;BME280;3872;47.902;8.162;2023-05-02T05:45:51;92188.44;;;11.12;100.00
7660;BME280;3872;47.902;8.162;2023-05-02T05:48:18;92184.94;;;11.17;100.00
7660;BME280;3872;47.902;8.162;2023-05-02T05:50:46;92187.22;;;10.91;100.00
7660;BME280;3872;47.902;8.162;2023-05-02T05:53:13;92191.88;;;12.13;100.00
7660;BME280;3872;47.902;8.162;2023-05-02T05:55:41;92187.34;;;11.73;100.00
7660;BME280;3872;47.902;8.162;2023-05-02T05:58:08;92191.41;;;11.84;100.00
7660;BME280;3872;47.902;8.162;2023-05-02T06:00:36;92191.19;;;12.08;100.00
7660;BME280;3872;47.902;8.162;2023-05-02T06:03:03;92191.13;;;11.99;100.00
7660;BME280;3872;47.902;8.162;2023-05-02T06:05:32;92185.97;;;12.30;100.00
7660;BME280;3872;47.902;8.162;2023-05-02T06:08:00;92194.22;;;12.15;100.00
7660;BME280;3872;47.902;8.162;2023-05-02T06:10:26;92196.09;;;12.64;100.00
7660;BME280;3872;47.902;8.162;2023-05-02T06:12:53;92197.63;;;12.65;100.00
7660;BME280;3872;47.902;8.162;2023-05-02T06:15:24;92195.53;;;13.34;100.00
7660;BME280;3872;47.902;8.162;2023-05-02T06:17:51;92200.97;;;12.71;100.00
7660;BME280;3872;47.902;8.162;2023-05-02T06:20:18;92206.19;;;11.66;100.00
7660;BME280;3872;47.902;8.162;2023-05-02T06:22:44;92205.75;;;11.92;100.00
7660;BME280;3872;47.902;8.162;2023-05-02T06:25:13;92207.25;;;12.61;100.00
7660;BME280;3872;47.902;8.162;2023-05-02T06:27:39;92212.16;;;13.57;96.69
7660;BME280;3872;47.902;8.162;2023-05-02T06:30:07;92218.28;;;12.99;100.00
7660;BME280;3872;47.902;8.162;2023-05-02T06:32:33;92216.22;;;12.10;100.00
7660;BME280;3872;47.902;8.162;2023-05-02T06:35:00;92223.28;;;12.51;100.00
7660;BME280;3872;47.902;8.162;2023-05-02T06:37:26;92225.13;;;12.64;100.00
7660;BME280;3872;47.902;8.162;2023-05-02T06:39:53;92223.38;;;12.60;100.00
7660;BME280;3872;47.902;8.162;2023-05-02T06:42:21;92226.41;;;13.25;100.00
7660;BME280;3872;47.902;8.162;2023-05-02T06:44:47;92226.88;;;13.05;100.00
7660;BME280;3872;47.902;8.162;2023-05-02T06:47:14;92227.78;;;12.50;100.00
7660;BME280;3872;47.902;8.162;2023-05-02T06:49:40;92233.81;;;12.78;100.00
7660;BME280;3872;47.902;8.162;2023-05-02T06:52:07;92232.91;;;13.19;100.00
7660;BME280;3872;47.902;8.162;2023-05-02T06:54:33;92236.38;;;13.81;91.84
7660;BME280;3872;47.902;8.162;2023-05-02T06:57:00;92238.19;;;13.72;88.17
7660;BME280;3872;47.902;8.162;2023-05-02T06:59:28;92238.25;;;12.55;100.00
7660;BME280;3872;47.902;8.162;2023-05-02T07:01:55;92244.34;;;13.37;94.32
7660;BME280;3872;47.902;8.162;2023-05-02T07:04:21;92238.13;;;12.97;100.00
7660;BME280;3872;47.902;8.162;2023-05-02T07:06:48;92250.16;;;13.03;100.00
7660;BME280;3872;47.902;8.162;2023-05-02T07:09:14;92241.53;;;13.86;95.46
7660;BME280;3872;47.902;8.162;2023-05-02T07:11:41;92257.47;;;13.42;97.95
7660;BME280;3872;47.902;8.162;2023-05-02T07:14:07;92246.03;;;13.55;98.71
7660;BME280;3872;47.902;8.162;2023-05-02T07:16:35;92241.88;;;13.62;94.31
7660;BME280;3872;47.902;8.162;2023-05-02T07:19:02;92247.97;;;12.82;100.00
7660;BME280;3872;47.902;8.162;2023-05-02T07:21:30;92240.84;;;13.41;99.62
7660;BME280;3872;47.902;8.162;2023-05-02T07:23:57;92250.56;;;13.32;100.00
7660;BME280;3872;47.902;8.162;2023-05-02T07:26:24;92240.00;;;14.99;83.35
7660;BME280;3872;47.902;8.162;2023-05-02T07:28:51;92244.03;;;15.48;76.47
7660;BME280;3872;47.902;8.162;2023-05-02T07:31:18;92257.75;;;15.50;73.36
7660;BME280;3872;47.902;8.162;2023-05-02T07:33:46;92251.84;;;14.27;85.56
7660;BME280;3872;47.902;8.162;2023-05-02T07:36:13;92245.13;;;14.69;83.09
7660;BME280;3872;47.902;8.162;2023-05-02T07:38:39;92253.41;;;15.11;74.91
7660;BME280;3872;47.902;8.162;2023-05-02T07:41:06;92260.06;;;13.33;89.93
7660;BME280;3872;47.902;8.162;2023-05-02T07:43:32;92249.66;;;14.77;78.99
7660;BME280;3872;47.902;8.162;2023-05-02T07:46:03;92246.66;;;14.62;80.15
7660;BME280;3872;47.902;8.162;2023-05-02T07:48:29;92239.72;;;14.35;84.70
7660;BME280;3872;47.902;8.162;2023-05-02T07:51:05;92230.78;;;14.79;78.60
7660;BME280;3872;47.902;8.162;2023-05-02T07:53:32;92254.25;;;14.06;84.38
7660;BME280;3872;47.902;8.162;2023-05-02T07:55:59;92243.72;;;14.24;88.58
7660;BME280;3872;47.902;8.162;2023-05-02T07:58:25;92244.19;;;15.43;76.41
7660;BME280;3872;47.902;8.162;2023-05-02T08:00:52;92246.47;;;14.10;84.49
7660;BME280;3872;47.902;8.162;2023-05-02T08:03:18;92250.75;;;15.02;70.75
7660;BME280;3872;47.902;8.162;2023-05-02T08:05:45;92259.44;;;14.29;76.04
7660;BME280;3872;47.902;8.162;2023-05-02T08:08:13;92250.59;;;14.33;75.28
7660;BME280;3872;47.902;8.162;2023-05-02T08:10:40;92250.75;;;15.11;73.44
7660;BME280;3872;47.902;8.162;2023-05-02T08:13:06;92247.00;;;14.95;73.18
7660;BME280;3872;47.902;8.162;2023-05-02T08:15:33;92238.84;;;15.86;68.14
7660;BME280;3872;47.902;8.162;2023-05-02T08:18:00;92246.63;;;16.37;64.82
7660;BME280;3872;47.902;8.162;2023-05-02T08:20:27;92245.31;;;16.52;62.12
7660;BME280;3872;47.902;8.162;2023-05-02T08:22:53;92253.47;;;14.45;75.52
7660;BME280;3872;47.902;8.162;2023-05-02T08:25:21;92256.16;;;14.71;74.65
7660;BME280;3872;47.902;8.162;2023-05-02T08:27:48;92247.13;;;16.31;69.44
7660;BME280;3872;47.902;8.162;2023-05-02T08:30:14;92243.25;;;17.08;64.92
7660;BME280;3872;47.902;8.162;2023-05-02T08:32:41;92254.19;;;17.48;60.47
7660;BME280;3872;47.902;8.162;2023-05-02T08:35:08;92261.38;;;15.54;66.25
7660;BME280;3872;47.902;8.162;2023-05-02T08:37:34;92255.59;;;15.09;72.55
7660;BME280;3872;47.902;8.162;2023-05-02T08:40:01;92266.56;;;13.58;81.79
7660;BME280;3872;47.902;8.162;2023-05-02T08:42:32;92268.19;;;14.69;76.19
7660;BME280;3872;47.902;8.162;2023-05-02T08:44:59;92272.13;;;15.57;70.12
7660;BME280;3872;47.902;8.162;2023-05-02T08:47:26;92270.88;;;15.46;76.58
7660;BME280;3872;47.902;8.162;2023-05-02T08:49:55;92271.34;;;15.65;73.71
7660;BME280;3872;47.902;8.162;2023-05-02T08:52:23;92272.56;;;16.40;66.49
7660;BME280;3872;47.902;8.162;2023-05-02T08:54:50;92280.44;;;15.56;68.08
7660;BME280;3872;47.902;8.162;2023-05-02T08:57:17;92284.31;;;15.58;66.52
7660;BME280;3872;47.902;8.162;2023-05-02T08:59:47;92289.50;;;14.24;78.73
7660;BME280;3872;47.902;8.162;2023-05-02T09:02:22;92286.47;;;15.74;67.65
7660;BME280;3872;47.902;8.162;2023-05-02T09:04:53;92289.00;;;15.70;64.41
7660;BME280;3872;47.902;8.162;2023-05-02T09:07:21;92282.25;;;16.28;64.25
7660;BME280;3872;47.902;8.162;2023-05-02T09:09:47;92288.63;;;16.82;61.60
7660;BME280;3872;47.902;8.162;2023-05-02T09:12:14;92290.88;;;16.25;64.24
7660;BME280;3872;47.902;8.162;2023-05-02T09:14:42;92290.50;;;16.43;63.09
7660;BME280;3872;47.902;8.162;2023-05-02T09:17:10;92301.78;;;15.68;65.40
7660;BME280;3872;47.902;8.162;2023-05-02T09:19:36;92300.66;;;16.41;64.73
7660;BME280;3872;47.902;8.162;2023-05-02T09:22:03;92293.16;;;16.43;66.21
7660;BME280;3872;47.902;8.162;2023-05-02T09:24:29;92299.31;;;15.63;67.64
7660;BME280;3872;47.902;8.162;2023-05-02T09:26:58;92295.31;;;16.03;68.33
7660;BME280;3872;47.902;8.162;2023-05-02T09:29:26;92298.13;;;17.12;62.77
7660;BME280;3872;47.902;8.162;2023-05-02T09:31:55;92311.09;;;17.14;61.25
7660;BME280;3872;47.902;8.162;2023-05-02T09:34:22;92305.16;;;17.17;61.19
7660;BME280;3872;47.902;8.162;2023-05-02T09:36:50;92313.19;;;16.32;64.49
7660;BME280;3872;47.902;8.162;2023-05-02T09:39:20;92314.72;;;15.87;66.43
7660;BME280;3872;47.902;8.162;2023-05-02T09:41:48;92314.06;;;16.54;65.15
7660;BME280;3872;47.902;8.162;2023-05-02T09:44:15;92312.50;;;16.91;64.72
7660;BME280;3872;47.902;8.162;2023-05-02T09:46:44;92323.63;;;16.46;67.94
7660;BME280;3872;47.902;8.162;2023-05-02T09:49:11;92312.75;;;16.22;64.70
7660;BME280;3872;47.902;8.162;2023-05-02T09:51:40;92315.16;;;16.61;63.79
7660;BME280;3872;47.902;8.162;2023-05-02T09:54:08;92308.53;;;17.47;62.54
7660;BME280;3872;47.902;8.162;2023-05-02T09:56:52;92313.59;;;17.81;58.46
7660;BME280;3872;47.902;8.162;2023-05-02T09:59:21;92309.44;;;17.72;57.37
7660;BME280;3872;47.902;8.162;2023-05-02T10:01:54;92315.97;;;17.95;55.19
7660;BME280;3872;47.902;8.162;2023-05-02T10:04:20;92315.34;;;17.56;57.34
7660;BME280;3872;47.902;8.162;2023-05-02T10:06:50;92313.41;;;17.24;57.93
7660;BME280;3872;47.902;8.162;2023-05-02T10:09:18;92317.16;;;16.56;60.39
7660;BME280;3872;47.902;8.162;2023-05-02T10:11:46;92315.06;;;17.49;56.11
7660;BME280;3872;47.902;8.162;2023-05-02T10:14:14;92316.69;;;17.21;55.51
7660;BME280;3872;47.902;8.162;2023-05-02T10:16:46;92318.69;;;16.74;56.60
7660;BME280;3872;47.902;8.162;2023-05-02T10:19:20;92310.38;;;16.37;58.67
7660;BME280;3872;47.902;8.162;2023-05-02T10:21:50;92317.91;;;16.27;58.29
7660;BME280;3872;47.902;8.162;2023-05-02T10:24:17;92311.91;;;17.35;57.29
7660;BME280;3872;47.902;8.162;2023-05-02T10:26:44;92326.97;;;16.72;57.22
7660;BME280;3872;47.902;8.162;2023-05-02T10:29:10;92316.06;;;17.45;54.96
7660;BME280;3872;47.902;8.162;2023-05-02T10:31:37;92318.13;;;16.51;56.78
7660;BME280;3872;47.902;8.162;2023-05-02T10:34:05;92316.91;;;17.37;55.09
7660;BME280;3872;47.902;8.162;2023-05-02T10:36:34;92310.94;;;18.14;52.35
7660;BME280;3872;47.902;8.162;2023-05-02T10:39:02;92305.16;;;17.38;52.90
7660;BME280;3872;47.902;8.162;2023-05-02T10:41:31;92297.16;;;17.58;49.40
7660;BME280;3872;47.902;8.162;2023-05-02T10:43:58;92302.50;;;17.79;49.22
7660;BME280;3872;47.902;8.162;2023-05-02T10:46:31;92302.25;;;18.05;54.66
7660;BME280;3872;47.902;8.162;2023-05-02T10:49:03;92303.13;;;17.97;48.73
7660;BME280;3872;47.902;8.162;2023-05-02T10:51:30;92295.28;;;17.17;51.23
7660;BME280;3872;47.902;8.162;2023-05-02T10:54:20;92295.94;;;17.35;54.31
7660;BME280;3872;47.902;8.162;2023-05-02T10:57:06;92283.25;;;19.25;50.07
7660;BME280;3872;47.902;8.162;2023-05-02T10:59:34;92290.59;;;19.15;47.78
7660;BME280;3872;47.902;8.162;2023-05-02T11:02:01;92292.50;;;18.09;51.47
7660;BME280;3872;47.902;8.162;2023-05-02T11:05:01;92293.09;;;18.27;51.07
7660;BME280;3872;47.902;8.162;2023-05-02T11:07:28;92291.34;;;17.65;52.43
7660;BME280;3872;47.902;8.162;2023-05-02T11:10:27;92295.66;;;18.23;50.43
7660;BME280;3872;47.902;8.162;2023-05-02T11:12:55;92290.47;;;18.39;50.78
7660;BME280;3872;47.902;8.162;2023-05-02T11:15:53;92301.19;;;17.23;54.54
7660;BME280;3872;47.902;8.162;2023-05-02T11:18:19;92298.59;;;17.77;50.49
7660;BME280;3872;47.902;8.162;2023-05-02T11:20:46;92294.91;;;17.90;49.17
7660;BME280;3872;47.902;8.162;2023-05-02T11:23:23;92304.97;;;18.17;50.45
7660;BME280;3872;47.902;8.162;2023-05-02T11:25:53;92305.94;;;17.38;53.16
7660;BME280;3872;47.902;8.162;2023-05-02T11:28:43;92306.34;;;18.03;51.05
7660;BME280;3872;47.902;8.162;2023-05-02T11:34:39;92302.22;;;17.51;51.37
7660;BME280;3872;47.902;8.162;2023-05-02T11:37:10;92303.44;;;16.62;54.94
7660;BME280;3872;47.902;8.162;2023-05-02T11:39:37;92310.59;;;18.04;51.18
7660;BME280;3872;47.902;8.162;2023-05-02T11:42:05;92300.06;;;18.76;44.01
7660;BME280;3872;47.902;8.162;2023-05-02T11:44:32;92296.81;;;18.83;46.80
7660;BME280;3872;47.902;8.162;2023-05-02T11:47:00;92292.81;;;20.65;43.11
7660;BME280;3872;47.902;8.162;2023-05-02T11:49:27;92288.56;;;22.00;40.09
7660;BME280;3872;47.902;8.162;2023-05-02T11:51:54;92283.41;;;21.72;39.71
7660;BME280;3872;47.902;8.162;2023-05-02T11:54:20;92280.41;;;23.03;37.98
7660;BME280;3872;47.902;8.162;2023-05-02T11:56:47;92278.75;;;22.95;36.02
7660;BME280;3872;47.902;8.162;2023-05-02T11:59:15;92283.19;;;21.81;38.22
7660;BME280;3872;47.902;8.162;2023-05-02T12:01:46;92282.47;;;20.79;42.50
7660;BME280;3872;47.902;8.162;2023-05-02T12:04:13;92275.34;;;22.30;38.48
7660;BME280;3872;47.902;8.162;2023-05-02T12:06:53;92279.81;;;21.30;38.67
7660;BME280;3872;47.902;8.162;2023-05-02T12:09:20;92282.91;;;19.78;44.10
7660;BME280;3872;47.902;8.162;2023-05-02T12:11:50;92290.03;;;20.02;42.39
7660;BME280;3872;47.902;8.162;2023-05-02T12:14:25;92300.94;;;16.49;55.22
7660;BME280;3872;47.902;8.162;2023-05-02T12:16:52;92294.03;;;16.94;54.40
7660;BME280;3872;47.902;8.162;2023-05-02T12:19:19;92305.94;;;15.95;54.52
7660;BME280;3872;47.902;8.162;2023-05-02T12:21:46;92298.22;;;17.25;51.98
7660;BME280;3872;47.902;8.162;2023-05-02T12:24:13;92306.06;;;17.83;52.66
7660;BME280;3872;47.902;8.162;2023-05-02T12:26:40;92305.63;;;16.60;58.14
7660;BME280;3872;47.902;8.162;2023-05-02T12:29:06;92300.47;;;16.84;55.95
7660;BME280;3872;47.902;8.162;2023-05-02T12:31:34;92299.75;;;16.29;55.56
7660;BME280;3872;47.902;8.162;2023-05-02T12:34:01;92302.09;;;17.48;51.98
7660;BME280;3872;47.902;8.162;2023-05-02T12:36:27;92293.94;;;18.64;50.27
7660;BME280;3872;47.902;8.162;2023-05-02T12:38:56;92287.63;;;18.81;44.64
7660;BME280;3872;47.902;8.162;2023-05-02T12:41:30;92295.47;;;18.53;46.51
7660;BME280;3872;47.902;8.162;2023-05-02T12:43:57;92302.41;;;16.29;51.87
7660;BME280;3872;47.902;8.162;2023-05-02T12:46:25;92296.13;;;16.80;51.46
7660;BME280;3872;47.902;8.162;2023-05-02T12:49:02;92296.81;;;18.47;53.55
7660;BME280;3872;47.902;8.162;2023-05-02T12:51:29;92297.16;;;19.06;52.36
7660;BME280;3872;47.902;8.162;2023-05-02T12:53:57;92295.13;;;19.39;50.68
7660;BME280;3872;47.902;8.162;2023-05-02T12:56:23;92298.22;;;19.53;51.10
7660;BME280;3872;47.902;8.162;2023-05-02T12:58:51;92297.22;;;19.86;50.72
7660;BME280;3872;47.902;8.162;2023-05-02T13:01:18;92295.03;;;19.11;49.42
7660;BME280;3872;47.902;8.162;2023-05-02T13:03:45;92291.59;;;20.78;45.71
7660;BME280;3872;47.902;8.162;2023-05-02T13:06:13;92291.75;;;22.48;41.64
7660;BME280;3872;47.902;8.162;2023-05-02T13:08:40;92289.75;;;22.22;39.83
7660;BME280;3872;47.902;8.162;2023-05-02T13:11:06;92296.94;;;20.94;40.25
7660;BME280;3872;47.902;8.162;2023-05-02T13:13:33;92291.25;;;21.46;40.00
7660;BME280;3872;47.902;8.162;2023-05-02T13:15:59;92298.06;;;20.18;41.04
7660;BME280;3872;47.902;8.162;2023-05-02T13:18:26;92292.38;;;20.47;41.01
7660;BME280;3872;47.902;8.162;2023-05-02T13:20:53;92287.47;;;20.21;41.58
7660;BME280;3872;47.902;8.162;2023-05-02T13:23:21;92290.84;;;21.63;42.79
7660;BME280;3872;47.902;8.162;2023-05-02T13:25:47;92286.13;;;23.81;37.79
7660;BME280;3872;47.902;8.162;2023-05-02T13:28:14;92293.41;;;23.51;39.76